CheckWX is a tool to help pilots better visualize weather data.  It is not intended as a substitute for an official pre-flight weather briefing.

23:13:36 UTC

KTIW METAR
Tacoma Narrows Airport
Tacoma, Washington, USA
Current

21 mins ago

KTIW 132253Z VRB05KT 10SM FEW050 21/08 A3011 RMK AO2 SLP193 T02110078
Observed
Jul-13 @ 22:53 UTC
Wind
  • Variable at 5 KTS
Visibility
10 SM
Flight Rules
VFR
Cloud Levels
  • Few at 5,000' AGL
Temperature
21°C / 70°F
Dewpoint
C / 46°F
Humidity
43%
Altimeter
30.11" Hg
Pressure
1019.62 hPa
Previous

1 hour ago

KTIW 132153Z 05006KT 10SM FEW050 21/06 A3012 RMK AO2 SLP197 T02110061
Observed
Jul-13 @ 21:53 UTC
Wind
  • 050° at 6 KTS
Visibility
10 SM
Flight Rules
VFR
Cloud Levels
  • Few at 5,000' AGL
Temperature
21°C / 70°F
Dewpoint
C / 43°F
Humidity
38%
Altimeter
30.12" Hg
Pressure
1020.02 hPa
Previous

2 hours ago

KTIW 132053Z 03009KT 10SM SCT040 21/07 A3013 RMK AO2 SLP200 T02060067 56008
Observed
Jul-13 @ 20:53 UTC
Wind
  • 030° at 9 KTS
Visibility
10 SM
Flight Rules
VFR
Cloud Levels
  • Scattered at 4,000' AGL
Temperature
21°C / 70°F
Dewpoint
C / 45°F
Humidity
40%
Altimeter
30.13" Hg
Pressure
1020.32 hPa